sensor_id;sensor_type;location;lat;lon;timestamp;temperature;humidity
22568;DHT22;11450;50.818;4.382;2022-07-09T00:01:01;21.10;98.50
22568;DHT22;11450;50.818;4.382;2022-07-09T00:03:26;21.10;98.10
22568;DHT22;11450;50.818;4.382;2022-07-09T00:05:53;21.30;97.50
22568;DHT22;11450;50.818;4.382;2022-07-09T00:08:19;21.30;97.80
22568;DHT22;11450;50.818;4.382;2022-07-09T00:10:44;21.40;97.20
22568;DHT22;11450;50.818;4.382;2022-07-09T00:13:10;21.30;97.20
22568;DHT22;11450;50.818;4.382;2022-07-09T00:15:36;21.40;97.60
22568;DHT22;11450;50.818;4.382;2022-07-09T00:18:03;21.10;98.20
22568;DHT22;11450;50.818;4.382;2022-07-09T00:20:29;21.10;97.60
22568;DHT22;11450;50.818;4.382;2022-07-09T00:22:54;21.10;97.60
22568;DHT22;11450;50.818;4.382;2022-07-09T00:25:20;21.20;97.60
22568;DHT22;11450;50.818;4.382;2022-07-09T00:27:46;21.20;97.40
22568;DHT22;11450;50.818;4.382;2022-07-09T00:30:12;20.90;97.40
22568;DHT22;11450;50.818;4.382;2022-07-09T00:32:37;20.60;98.00
22568;DHT22;11450;50.818;4.382;2022-07-09T00:35:05;20.50;98.40
22568;DHT22;11450;50.818;4.382;2022-07-09T00:37:30;20.50;98.60
22568;DHT22;11450;50.818;4.382;2022-07-09T00:39:56;20.40;98.70
22568;DHT22;11450;50.818;4.382;2022-07-09T00:42:22;20.20;99.00
22568;DHT22;11450;50.818;4.382;2022-07-09T00:44:47;20.20;99.70
22568;DHT22;11450;50.818;4.382;2022-07-09T00:47:13;20.10;99.90
22568;DHT22;11450;50.818;4.382;2022-07-09T00:49:41;20.20;99.50
22568;DHT22;11450;50.818;4.382;2022-07-09T00:52:10;20.10;99.90
22568;DHT22;11450;50.818;4.382;2022-07-09T00:54:37;20.10;99.90
22568;DHT22;11450;50.818;4.382;2022-07-09T00:57:06;20.10;99.90
22568;DHT22;11450;50.818;4.382;2022-07-09T00:59:34;20.00;99.90
22568;DHT22;11450;50.818;4.382;2022-07-09T01:02:01;20.10;99.90
22568;DHT22;11450;50.818;4.382;2022-07-09T01:04:27;20.00;99.90
22568;DHT22;11450;50.818;4.382;2022-07-09T01:06:53;20.20;99.90
22568;DHT22;11450;50.818;4.382;2022-07-09T01:09:18;20.20;99.90
22568;DHT22;11450;50.818;4.382;2022-07-09T01:11:45;20.30;99.80
22568;DHT22;11450;50.818;4.382;2022-07-09T01:14:11;20.40;99.80
22568;DHT22;11450;50.818;4.382;2022-07-09T01:16:37;20.40;99.60
22568;DHT22;11450;50.818;4.382;2022-07-09T01:19:04;20.50;99.70
22568;DHT22;11450;50.818;4.382;2022-07-09T01:21:35;20.40;99.60
22568;DHT22;11450;50.818;4.382;2022-07-09T01:24:01;20.40;99.60
22568;DHT22;11450;50.818;4.382;2022-07-09T01:26:27;20.40;99.90
22568;DHT22;11450;50.818;4.382;2022-07-09T01:28:53;20.30;99.70
22568;DHT22;11450;50.818;4.382;2022-07-09T01:31:18;20.30;99.90
22568;DHT22;11450;50.818;4.382;2022-07-09T01:33:44;20.40;99.90
22568;DHT22;11450;50.818;4.382;2022-07-09T01:36:10;20.30;99.90
22568;DHT22;11450;50.818;4.382;2022-07-09T01:38:36;20.20;99.90
22568;DHT22;11450;50.818;4.382;2022-07-09T01:41:03;20.20;99.90
22568;DHT22;11450;50.818;4.382;2022-07-09T01:43:29;20.10;99.90
22568;DHT22;11450;50.818;4.382;2022-07-09T01:45:56;20.00;99.90
22568;DHT22;11450;50.818;4.382;2022-07-09T01:48:22;20.00;99.90
22568;DHT22;11450;50.818;4.382;2022-07-09T01:50:48;19.90;99.90
22568;DHT22;11450;50.818;4.382;2022-07-09T01:53:13;20.00;99.90
22568;DHT22;11450;50.818;4.382;2022-07-09T01:55:39;20.10;99.90
22568;DHT22;11450;50.818;4.382;2022-07-09T01:58:05;20.30;99.90
22568;DHT22;11450;50.818;4.382;2022-07-09T02:00:31;20.30;99.90
22568;DHT22;11450;50.818;4.382;2022-07-09T02:02:56;20.30;99.90
22568;DHT22;11450;50.818;4.382;2022-07-09T02:05:22;20.30;99.90
22568;DHT22;11450;50.818;4.382;2022-07-09T02:07:48;20.30;99.90
22568;DHT22;11450;50.818;4.382;2022-07-09T02:10:15;20.20;99.90
22568;DHT22;11450;50.818;4.382;2022-07-09T02:12:41;20.20;99.90
22568;DHT22;11450;50.818;4.382;2022-07-09T02:15:07;20.10;99.90
22568;DHT22;11450;50.818;4.382;2022-07-09T02:17:34;20.00;99.90
22568;DHT22;11450;50.818;4.382;2022-07-09T02:19:59;19.90;99.90
22568;DHT22;11450;50.818;4.382;2022-07-09T02:22:25;20.00;99.90
22568;DHT22;11450;50.818;4.382;2022-07-09T02:24:51;20.10;99.90
22568;DHT22;11450;50.818;4.382;2022-07-09T02:27:16;20.10;99.90
22568;DHT22;11450;50.818;4.382;2022-07-09T02:29:42;20.10;99.90
22568;DHT22;11450;50.818;4.382;2022-07-09T02:32:08;20.20;99.90
22568;DHT22;11450;50.818;4.382;2022-07-09T02:34:36;20.20;99.90
22568;DHT22;11450;50.818;4.382;2022-07-09T02:37:03;20.10;99.90
22568;DHT22;11450;50.818;4.382;2022-07-09T02:39:29;20.20;99.90
22568;DHT22;11450;50.818;4.382;2022-07-09T02:41:55;20.10;99.90
22568;DHT22;11450;50.818;4.382;2022-07-09T02:44:20;20.00;99.90
22568;DHT22;11450;50.818;4.382;2022-07-09T02:46:46;20.00;99.90
22568;DHT22;11450;50.818;4.382;2022-07-09T02:49:11;20.10;99.90
22568;DHT22;11450;50.818;4.382;2022-07-09T02:51:37;20.10;99.90
22568;DHT22;11450;50.818;4.382;2022-07-09T02:54:03;20.10;99.90
22568;DHT22;11450;50.818;4.382;2022-07-09T02:56:29;20.10;99.90
22568;DHT22;11450;50.818;4.382;2022-07-09T02:58:54;20.20;99.90
22568;DHT22;11450;50.818;4.382;2022-07-09T03:01:20;20.20;99.90
22568;DHT22;11450;50.818;4.382;2022-07-09T03:03:46;20.10;99.90
22568;DHT22;11450;50.818;4.382;2022-07-09T03:06:11;20.10;99.90
22568;DHT22;11450;50.818;4.382;2022-07-09T03:08:39;20.10;99.90
22568;DHT22;11450;50.818;4.382;2022-07-09T03:11:05;20.30;99.90
22568;DHT22;11450;50.818;4.382;2022-07-09T03:13:34;20.20;99.90
22568;DHT22;11450;50.818;4.382;2022-07-09T03:16:01;20.20;99.90
22568;DHT22;11450;50.818;4.382;2022-07-09T03:18:27;20.30;99.90
22568;DHT22;11450;50.818;4.382;2022-07-09T03:20:52;20.30;99.90
22568;DHT22;11450;50.818;4.382;2022-07-09T03:23:18;20.40;99.90
22568;DHT22;11450;50.818;4.382;2022-07-09T03:25:44;20.40;99.90
22568;DHT22;11450;50.818;4.382;2022-07-09T03:28:10;20.50;99.90
22568;DHT22;11450;50.818;4.382;2022-07-09T03:30:35;20.40;99.90
22568;DHT22;11450;50.818;4.382;2022-07-09T03:33:01;20.50;99.90
22568;DHT22;11450;50.818;4.382;2022-07-09T03:35:27;20.20;99.90
22568;DHT22;11450;50.818;4.382;2022-07-09T03:37:53;20.20;99.90
22568;DHT22;11450;50.818;4.382;2022-07-09T03:40:18;20.20;99.90
22568;DHT22;11450;50.818;4.382;2022-07-09T03:42:44;20.10;99.90
22568;DHT22;11450;50.818;4.382;2022-07-09T03:45:10;20.10;99.90
22568;DHT22;11450;50.818;4.382;2022-07-09T03:47:35;20.20;99.90
22568;DHT22;11450;50.818;4.382;2022-07-09T03:50:01;20.10;99.90
22568;DHT22;11450;50.818;4.382;2022-07-09T03:52:27;20.20;99.90
22568;DHT22;11450;50.818;4.382;2022-07-09T03:54:53;20.00;99.90
22568;DHT22;11450;50.818;4.382;2022-07-09T03:57:18;20.10;99.90
22568;DHT22;11450;50.818;4.382;2022-07-09T03:59:44;19.90;99.90
22568;DHT22;11450;50.818;4.382;2022-07-09T04:02:09;19.60;99.90
22568;DHT22;11450;50.818;4.382;2022-07-09T04:04:35;19.60;99.90
22568;DHT22;11450;50.818;4.382;2022-07-09T04:07:01;19.50;99.90
22568;DHT22;11450;50.818;4.382;2022-07-09T04:09:26;19.40;99.90
22568;DHT22;11450;50.818;4.382;2022-07-09T04:11:52;19.40;99.90
22568;DHT22;11450;50.818;4.382;2022-07-09T04:14:18;19.20;99.90
22568;DHT22;11450;50.818;4.382;2022-07-09T04:16:48;19.40;99.90
22568;DHT22;11450;50.818;4.382;2022-07-09T04:19:13;19.40;99.90
22568;DHT22;11450;50.818;4.382;2022-07-09T04:27:10;19.60;99.90
22568;DHT22;11450;50.818;4.382;2022-07-09T04:29:36;19.60;99.90
22568;DHT22;11450;50.818;4.382;2022-07-09T04:32:02;19.50;99.90
22568;DHT22;11450;50.818;4.382;2022-07-09T04:34:27;19.40;99.90
22568;DHT22;11450;50.818;4.382;2022-07-09T04:36:53;19.40;99.90
22568;DHT22;11450;50.818;4.382;2022-07-09T04:39:19;19.30;99.90
22568;DHT22;11450;50.818;4.382;2022-07-09T04:41:45;19.50;99.90
22568;DHT22;11450;50.818;4.382;2022-07-09T04:44:10;19.50;99.90
22568;DHT22;11450;50.818;4.382;2022-07-09T04:46:41;19.40;99.90
22568;DHT22;11450;50.818;4.382;2022-07-09T04:49:07;19.30;99.90
22568;DHT22;11450;50.818;4.382;2022-07-09T04:51:32;19.30;99.90
22568;DHT22;11450;50.818;4.382;2022-07-09T04:53:58;19.30;99.90
22568;DHT22;11450;50.818;4.382;2022-07-09T04:56:23;19.20;99.90
22568;DHT22;11450;50.818;4.382;2022-07-09T04:58:49;19.20;99.90
22568;DHT22;11450;50.818;4.382;2022-07-09T05:01:19;19.10;99.90
22568;DHT22;11450;50.818;4.382;2022-07-09T05:03:45;19.20;99.90
22568;DHT22;11450;50.818;4.382;2022-07-09T05:06:17;19.30;99.90
22568;DHT22;11450;50.818;4.382;2022-07-09T05:08:43;19.40;99.90
22568;DHT22;11450;50.818;4.382;2022-07-09T05:11:09;19.20;99.90
22568;DHT22;11450;50.818;4.382;2022-07-09T05:13:36;19.10;99.90
22568;DHT22;11450;50.818;4.382;2022-07-09T05:16:03;19.10;99.90
22568;DHT22;11450;50.818;4.382;2022-07-09T05:18:28;19.20;99.90
22568;DHT22;11450;50.818;4.382;2022-07-09T05:20:56;19.30;99.90
22568;DHT22;11450;50.818;4.382;2022-07-09T05:23:22;19.20;99.90
22568;DHT22;11450;50.818;4.382;2022-07-09T05:25:48;19.30;99.90
22568;DHT22;11450;50.818;4.382;2022-07-09T05:28:13;19.30;99.90
22568;DHT22;11450;50.818;4.382;2022-07-09T05:30:39;19.30;99.90
22568;DHT22;11450;50.818;4.382;2022-07-09T05:33:05;19.30;99.90
22568;DHT22;11450;50.818;4.382;2022-07-09T05:35:31;19.30;99.90
22568;DHT22;11450;50.818;4.382;2022-07-09T05:37:57;19.50;99.90
22568;DHT22;11450;50.818;4.382;2022-07-09T05:40:23;19.50;99.90
22568;DHT22;11450;50.818;4.382;2022-07-09T05:42:48;19.50;99.90
22568;DHT22;11450;50.818;4.382;2022-07-09T05:45:14;19.50;99.90
22568;DHT22;11450;50.818;4.382;2022-07-09T05:47:40;19.60;99.90
22568;DHT22;11450;50.818;4.382;2022-07-09T05:50:06;19.60;99.90
22568;DHT22;11450;50.818;4.382;2022-07-09T05:52:32;19.60;99.90
22568;DHT22;11450;50.818;4.382;2022-07-09T05:54:58;19.70;99.90
22568;DHT22;11450;50.818;4.382;2022-07-09T05:57:23;19.70;99.90
22568;DHT22;11450;50.818;4.382;2022-07-09T05:59:49;19.80;99.90
22568;DHT22;11450;50.818;4.382;2022-07-09T06:02:15;19.90;99.90
22568;DHT22;11450;50.818;4.382;2022-07-09T06:04:41;19.80;99.90
22568;DHT22;11450;50.818;4.382;2022-07-09T06:07:06;19.80;99.90
22568;DHT22;11450;50.818;4.382;2022-07-09T06:09:32;19.90;99.90
22568;DHT22;11450;50.818;4.382;2022-07-09T06:11:58;19.90;99.90
22568;DHT22;11450;50.818;4.382;2022-07-09T06:14:24;20.20;99.90
22568;DHT22;11450;50.818;4.382;2022-07-09T06:16:49;20.80;99.90
22568;DHT22;11450;50.818;4.382;2022-07-09T06:19:15;21.30;99.90
22568;DHT22;11450;50.818;4.382;2022-07-09T06:21:41;21.90;99.90
22568;DHT22;11450;50.818;4.382;2022-07-09T06:24:07;22.50;99.90
22568;DHT22;11450;50.818;4.382;2022-07-09T06:26:32;23.00;99.90
22568;DHT22;11450;50.818;4.382;2022-07-09T06:28:59;23.50;99.90
22568;DHT22;11450;50.818;4.382;2022-07-09T06:31:25;23.90;99.30
22568;DHT22;11450;50.818;4.382;2022-07-09T06:33:51;24.10;98.20
22568;DHT22;11450;50.818;4.382;2022-07-09T06:36:17;24.50;97.70
22568;DHT22;11450;50.818;4.382;2022-07-09T06:38:43;24.80;97.20
22568;DHT22;11450;50.818;4.382;2022-07-09T06:41:28;24.90;96.60
22568;DHT22;11450;50.818;4.382;2022-07-09T06:43:53;24.90;96.20
22568;DHT22;11450;50.818;4.382;2022-07-09T06:46:19;25.20;96.30
22568;DHT22;11450;50.818;4.382;2022-07-09T06:48:45;25.20;95.50
22568;DHT22;11450;50.818;4.382;2022-07-09T06:51:10;25.20;95.10
22568;DHT22;11450;50.818;4.382;2022-07-09T06:53:36;25.30;95.20
22568;DHT22;11450;50.818;4.382;2022-07-09T06:56:03;25.10;95.20
22568;DHT22;11450;50.818;4.382;2022-07-09T06:58:28;25.10;95.70
22568;DHT22;11450;50.818;4.382;2022-07-09T07:00:54;24.80;95.60
22568;DHT22;11450;50.818;4.382;2022-07-09T07:03:20;24.70;95.10
22568;DHT22;11450;50.818;4.382;2022-07-09T07:05:45;24.70;95.20
22568;DHT22;11450;50.818;4.382;2022-07-09T07:08:11;24.70;95.70
22568;DHT22;11450;50.818;4.382;2022-07-09T07:10:36;24.90;95.70
22568;DHT22;11450;50.818;4.382;2022-07-09T07:13:02;25.00;94.90
22568;DHT22;11450;50.818;4.382;2022-07-09T07:15:29;25.00;94.50
22568;DHT22;11450;50.818;4.382;2022-07-09T07:17:54;24.80;94.90
22568;DHT22;11450;50.818;4.382;2022-07-09T07:20:20;24.50;95.60
22568;DHT22;11450;50.818;4.382;2022-07-09T07:22:50;24.30;95.40
22568;DHT22;11450;50.818;4.382;2022-07-09T07:25:16;23.90;96.10
22568;DHT22;11450;50.818;4.382;2022-07-09T07:27:41;23.70;95.90
22568;DHT22;11450;50.818;4.382;2022-07-09T07:30:07;23.50;97.10
22568;DHT22;11450;50.818;4.382;2022-07-09T07:32:33;23.60;96.20
22568;DHT22;11450;50.818;4.382;2022-07-09T07:34:59;23.50;97.00
22568;DHT22;11450;50.818;4.382;2022-07-09T07:37:24;23.50;96.70
22568;DHT22;11450;50.818;4.382;2022-07-09T07:39:50;23.70;96.50
22568;DHT22;11450;50.818;4.382;2022-07-09T07:42:15;23.90;95.70
22568;DHT22;11450;50.818;4.382;2022-07-09T07:44:42;24.20;95.40
22568;DHT22;11450;50.818;4.382;2022-07-09T07:47:07;24.00;95.90
22568;DHT22;11450;50.818;4.382;2022-07-09T07:49:33;24.20;95.70
22568;DHT22;11450;50.818;4.382;2022-07-09T07:52:01;24.00;96.00
22568;DHT22;11450;50.818;4.382;2022-07-09T07:54:26;23.60;96.70
22568;DHT22;11450;50.818;4.382;2022-07-09T07:56:52;23.60;97.00
22568;DHT22;11450;50.818;4.382;2022-07-09T07:59:18;23.30;97.40
22568;DHT22;11450;50.818;4.382;2022-07-09T08:01:43;23.30;97.30
22568;DHT22;11450;50.818;4.382;2022-07-09T08:04:09;23.60;97.10
22568;DHT22;11450;50.818;4.382;2022-07-09T08:06:35;24.10;96.20
22568;DHT22;11450;50.818;4.382;2022-07-09T08:09:02;24.30;95.50
22568;DHT22;11450;50.818;4.382;2022-07-09T08:11:27;24.70;95.70
22568;DHT22;11450;50.818;4.382;2022-07-09T08:13:53;25.10;94.80
22568;DHT22;11450;50.818;4.382;2022-07-09T08:16:19;25.30;94.50
22568;DHT22;11450;50.818;4.382;2022-07-09T08:18:45;25.40;94.70
22568;DHT22;11450;50.818;4.382;2022-07-09T08:21:11;25.90;94.30
22568;DHT22;11450;50.818;4.382;2022-07-09T08:23:37;26.20;93.40
22568;DHT22;11450;50.818;4.382;2022-07-09T08:26:25;26.70;93.10
22568;DHT22;11450;50.818;4.382;2022-07-09T08:28:53;27.30;92.10
22568;DHT22;11450;50.818;4.382;2022-07-09T08:31:19;26.30;92.40
22568;DHT22;11450;50.818;4.382;2022-07-09T08:33:50;25.90;92.90
22568;DHT22;11450;50.818;4.382;2022-07-09T08:36:17;25.40;93.90
22568;DHT22;11450;50.818;4.382;2022-07-09T08:38:43;25.20;93.80
22568;DHT22;11450;50.818;4.382;2022-07-09T08:41:09;25.10;94.20
22568;DHT22;11450;50.818;4.382;2022-07-09T08:43:37;25.30;93.90
22568;DHT22;11450;50.818;4.382;2022-07-09T08:46:04;25.60;93.90
22568;DHT22;11450;50.818;4.382;2022-07-09T08:48:35;25.60;93.50
22568;DHT22;11450;50.818;4.382;2022-07-09T08:51:01;26.00;93.10
22568;DHT22;11450;50.818;4.382;2022-07-09T08:53:28;26.00;93.20
22568;DHT22;11450;50.818;4.382;2022-07-09T08:55:56;26.10;93.40
22568;DHT22;11450;50.818;4.382;2022-07-09T08:58:22;26.50;92.90
22568;DHT22;11450;50.818;4.382;2022-07-09T09:00:49;26.30;92.80
22568;DHT22;11450;50.818;4.382;2022-07-09T09:03:18;26.60;92.50
22568;DHT22;11450;50.818;4.382;2022-07-09T09:05:44;27.00;92.20
22568;DHT22;11450;50.818;4.382;2022-07-09T09:08:20;27.00;92.20
22568;DHT22;11450;50.818;4.382;2022-07-09T09:10:48;27.40;91.90
22568;DHT22;11450;50.818;4.382;2022-07-09T09:13:15;26.90;92.20
22568;DHT22;11450;50.818;4.382;2022-07-09T09:15:44;26.40;92.80
22568;DHT22;11450;50.818;4.382;2022-07-09T09:18:10;26.10;93.20
22568;DHT22;11450;50.818;4.382;2022-07-09T09:20:37;25.90;93.30
22568;DHT22;11450;50.818;4.382;2022-07-09T09:23:04;25.90;93.70
22568;DHT22;11450;50.818;4.382;2022-07-09T09:25:35;26.10;93.40
22568;DHT22;11450;50.818;4.382;2022-07-09T09:28:00;26.30;93.20
22568;DHT22;11450;50.818;4.382;2022-07-09T09:30:29;26.70;92.70
22568;DHT22;11450;50.818;4.382;2022-07-09T09:33:00;26.70;92.50
22568;DHT22;11450;50.818;4.382;2022-07-09T09:35:36;26.40;93.00
22568;DHT22;11450;50.818;4.382;2022-07-09T09:38:07;26.90;92.00
22568;DHT22;11450;50.818;4.382;2022-07-09T09:40:32;27.10;92.30
22568;DHT22;11450;50.818;4.382;2022-07-09T09:43:01;27.80;91.30
22568;DHT22;11450;50.818;4.382;2022-07-09T09:45:28;28.40;90.70
22568;DHT22;11450;50.818;4.382;2022-07-09T09:47:54;28.40;91.10
22568;DHT22;11450;50.818;4.382;2022-07-09T09:50:22;27.80;91.40
22568;DHT22;11450;50.818;4.382;2022-07-09T09:52:50;27.90;91.20
22568;DHT22;11450;50.818;4.382;2022-07-09T09:55:18;27.70;91.90
22568;DHT22;11450;50.818;4.382;2022-07-09T09:57:45;28.10;91.50
22568;DHT22;11450;50.818;4.382;2022-07-09T10:00:12;28.30;91.10
22568;DHT22;11450;50.818;4.382;2022-07-09T10:02:44;28.00;91.40
22568;DHT22;11450;50.818;4.382;2022-07-09T10:05:10;27.30;92.30
22568;DHT22;11450;50.818;4.382;2022-07-09T10:07:36;27.20;92.50
22568;DHT22;11450;50.818;4.382;2022-07-09T10:10:05;27.10;92.50
22568;DHT22;11450;50.818;4.382;2022-07-09T10:12:35;27.00;93.10
22568;DHT22;11450;50.818;4.382;2022-07-09T10:15:07;27.10;92.80
22568;DHT22;11450;50.818;4.382;2022-07-09T10:17:39;27.30;92.90
22568;DHT22;11450;50.818;4.382;2022-07-09T10:20:06;27.30;93.20
22568;DHT22;11450;50.818;4.382;2022-07-09T10:22:38;26.60;94.10
22568;DHT22;11450;50.818;4.382;2022-07-09T10:25:05;26.00;95.20
22568;DHT22;11450;50.818;4.382;2022-07-09T10:27:45;26.10;95.60
22568;DHT22;11450;50.818;4.382;2022-07-09T10:30:33;26.20;95.20
22568;DHT22;11450;50.818;4.382;2022-07-09T10:33:13;25.80;95.80
22568;DHT22;11450;50.818;4.382;2022-07-09T10:35:46;26.30;95.10
22568;DHT22;11450;50.818;4.382;2022-07-09T10:38:15;25.70;95.40
22568;DHT22;11450;50.818;4.382;2022-07-09T10:40:55;25.80;96.00
22568;DHT22;11450;50.818;4.382;2022-07-09T10:43:41;25.90;95.60
22568;DHT22;11450;50.818;4.382;2022-07-09T10:46:11;25.80;95.80
22568;DHT22;11450;50.818;4.382;2022-07-09T10:48:38;25.50;95.70
22568;DHT22;11450;50.818;4.382;2022-07-09T10:51:04;25.30;96.00
22568;DHT22;11450;50.818;4.382;2022-07-09T10:53:30;25.70;95.40
22568;DHT22;11450;50.818;4.382;2022-07-09T10:55:56;25.50;95.60
22568;DHT22;11450;50.818;4.382;2022-07-09T10:58:24;25.50;95.90
22568;DHT22;11450;50.818;4.382;2022-07-09T11:00:58;26.10;95.50
22568;DHT22;11450;50.818;4.382;2022-07-09T11:03:29;26.00;95.10
22568;DHT22;11450;50.818;4.382;2022-07-09T11:05:54;25.50;95.60
22568;DHT22;11450;50.818;4.382;2022-07-09T11:08:20;25.40;96.00
22568;DHT22;11450;50.818;4.382;2022-07-09T11:10:46;26.10;95.20
22568;DHT22;11450;50.818;4.382;2022-07-09T11:13:12;26.40;95.00
22568;DHT22;11450;50.818;4.382;2022-07-09T11:15:38;25.90;95.70
22568;DHT22;11450;50.818;4.382;2022-07-09T11:18:11;25.30;96.10
22568;DHT22;11450;50.818;4.382;2022-07-09T11:20:47;25.20;96.20
22568;DHT22;11450;50.818;4.382;2022-07-09T11:23:14;25.20;96.50
22568;DHT22;11450;50.818;4.382;2022-07-09T11:25:40;25.50;95.60
22568;DHT22;11450;50.818;4.382;2022-07-09T11:28:06;25.20;95.80
22568;DHT22;11450;50.818;4.382;2022-07-09T11:30:32;24.90;96.40
22568;DHT22;11450;50.818;4.382;2022-07-09T11:32:59;24.40;97.10
22568;DHT22;11450;50.818;4.382;2022-07-09T11:35:35;24.50;96.90
22568;DHT22;11450;50.818;4.382;2022-07-09T11:38:02;24.70;96.60
22568;DHT22;11450;50.818;4.382;2022-07-09T11:40:29;24.40;96.10
22568;DHT22;11450;50.818;4.382;2022-07-09T11:42:55;24.30;96.50
22568;DHT22;11450;50.818;4.382;2022-07-09T11:45:26;23.70;97.70
22568;DHT22;11450;50.818;4.382;2022-07-09T11:48:09;23.80;97.10
22568;DHT22;11450;50.818;4.382;2022-07-09T11:50:43;24.00;97.20
22568;DHT22;11450;50.818;4.382;2022-07-09T11:53:25;23.80;97.60
22568;DHT22;11450;50.818;4.382;2022-07-09T11:55:58;24.00;97.30
22568;DHT22;11450;50.818;4.382;2022-07-09T11:58:26;24.20;96.50
22568;DHT22;11450;50.818;4.382;2022-07-09T12:00:52;24.30;96.30
22568;DHT22;11450;50.818;4.382;2022-07-09T12:03:26;24.30;96.60
22568;DHT22;11450;50.818;4.382;2022-07-09T12:05:53;24.20;96.30
22568;DHT22;11450;50.818;4.382;2022-07-09T12:08:27;24.70;95.40
22568;DHT22;11450;50.818;4.382;2022-07-09T12:10:54;24.50;94.90
22568;DHT22;11450;50.818;4.382;2022-07-09T12:13:21;24.20;95.10
22568;DHT22;11450;50.818;4.382;2022-07-09T12:15:47;23.80;95.70
22568;DHT22;11450;50.818;4.382;2022-07-09T12:18:13;23.90;96.50
22568;DHT22;11450;50.818;4.382;2022-07-09T12:20:38;23.70;96.70
22568;DHT22;11450;50.818;4.382;2022-07-09T12:23:04;23.40;97.50
22568;DHT22;11450;50.818;4.382;2022-07-09T12:25:30;23.40;97.60
22568;DHT22;11450;50.818;4.382;2022-07-09T12:27:56;23.50;97.40
22568;DHT22;11450;50.818;4.382;2022-07-09T12:30:22;23.10;97.90
22568;DHT22;11450;50.818;4.382;2022-07-09T12:32:48;23.00;97.50
22568;DHT22;11450;50.818;4.382;2022-07-09T12:35:14;23.20;97.60
22568;DHT22;11450;50.818;4.382;2022-07-09T12:37:41;23.20;97.60
22568;DHT22;11450;50.818;4.382;2022-07-09T12:40:08;23.20;97.40
22568;DHT22;11450;50.818;4.382;2022-07-09T12:42:36;23.30;96.90
22568;DHT22;11450;50.818;4.382;2022-07-09T12:45:02;23.30;96.80
22568;DHT22;11450;50.818;4.382;2022-07-09T12:47:27;23.00;97.40
22568;DHT22;11450;50.818;4.382;2022-07-09T12:49:53;22.90;97.70
22568;DHT22;11450;50.818;4.382;2022-07-09T12:52:20;23.30;96.80
22568;DHT22;11450;50.818;4.382;2022-07-09T12:54:45;23.30;96.20
22568;DHT22;11450;50.818;4.382;2022-07-09T12:57:11;23.20;96.60
22568;DHT22;11450;50.818;4.382;2022-07-09T12:59:37;22.90;97.40
22568;DHT22;11450;50.818;4.382;2022-07-09T13:02:04;22.80;96.90
22568;DHT22;11450;50.818;4.382;2022-07-09T13:04:30;22.80;96.80
22568;DHT22;11450;50.818;4.382;2022-07-09T13:06:57;22.90;97.20
22568;DHT22;11450;50.818;4.382;2022-07-09T13:09:24;22.90;96.70
22568;DHT22;11450;50.818;4.382;2022-07-09T13:11:49;22.50;97.50
22568;DHT22;11450;50.818;4.382;2022-07-09T13:14:15;22.70;96.20
22568;DHT22;11450;50.818;4.382;2022-07-09T13:16:42;22.90;96.50
22568;DHT22;11450;50.818;4.382;2022-07-09T13:19:07;23.00;96.20
22568;DHT22;11450;50.818;4.382;2022-07-09T13:21:33;23.60;95.30
22568;DHT22;11450;50.818;4.382;2022-07-09T13:24:00;23.60;95.40
22568;DHT22;11450;50.818;4.382;2022-07-09T13:26:26;23.70;95.10
22568;DHT22;11450;50.818;4.382;2022-07-09T13:28:51;23.70;95.10
22568;DHT22;11450;50.818;4.382;2022-07-09T13:31:17;24.00;94.80
22568;DHT22;11450;50.818;4.382;2022-07-09T13:33:46;23.80;95.10
22568;DHT22;11450;50.818;4.382;2022-07-09T13:36:12;23.40;95.60
22568;DHT22;11450;50.818;4.382;2022-07-09T13:38:37;23.40;95.50
22568;DHT22;11450;50.818;4.382;2022-07-09T13:41:04;23.60;95.00
22568;DHT22;11450;50.818;4.382;2022-07-09T13:43:32;23.30;94.50
22568;DHT22;11450;50.818;4.382;2022-07-09T13:45:58;23.40;94.80
22568;DHT22;11450;50.818;4.382;2022-07-09T13:48:25;23.70;94.30
22568;DHT22;11450;50.818;4.382;2022-07-09T13:50:52;24.00;94.10
22568;DHT22;11450;50.818;4.382;2022-07-09T13:53:19;23.80;94.50
22568;DHT22;11450;50.818;4.382;2022-07-09T13:55:46;23.60;94.90
22568;DHT22;11450;50.818;4.382;2022-07-09T13:58:12;23.60;94.40
22568;DHT22;11450;50.818;4.382;2022-07-09T14:00:38;23.40;95.40
22568;DHT22;11450;50.818;4.382;2022-07-09T14:03:04;23.20;95.10
22568;DHT22;11450;50.818;4.382;2022-07-09T14:05:30;23.10;94.80
22568;DHT22;11450;50.818;4.382;2022-07-09T14:07:56;23.30;94.00
22568;DHT22;11450;50.818;4.382;2022-07-09T14:10:24;23.10;94.90
22568;DHT22;11450;50.818;4.382;2022-07-09T14:12:50;22.90;94.50
22568;DHT22;11450;50.818;4.382;2022-07-09T14:15:15;23.00;94.30
22568;DHT22;11450;50.818;4.382;2022-07-09T14:17:42;23.00;94.10
22568;DHT22;11450;50.818;4.382;2022-07-09T14:20:08;22.70;94.70
22568;DHT22;11450;50.818;4.382;2022-07-09T14:22:34;22.70;94.80
22568;DHT22;11450;50.818;4.382;2022-07-09T14:25:00;22.80;94.70
22568;DHT22;11450;50.818;4.382;2022-07-09T14:27:25;22.50;95.10
22568;DHT22;11450;50.818;4.382;2022-07-09T14:29:51;22.70;93.80
22568;DHT22;11450;50.818;4.382;2022-07-09T14:32:16;22.80;93.80
22568;DHT22;11450;50.818;4.382;2022-07-09T14:34:42;22.80;94.00
22568;DHT22;11450;50.818;4.382;2022-07-09T14:37:08;23.00;93.90
22568;DHT22;11450;50.818;4.382;2022-07-09T14:39:34;22.80;94.20
22568;DHT22;11450;50.818;4.382;2022-07-09T14:41:59;22.70;94.70
22568;DHT22;11450;50.818;4.382;2022-07-09T14:44:25;22.70;94.50
22568;DHT22;11450;50.818;4.382;2022-07-09T14:46:50;22.80;93.70
22568;DHT22;11450;50.818;4.382;2022-07-09T14:49:19;22.90;92.70
22568;DHT22;11450;50.818;4.382;2022-07-09T14:51:45;23.00;93.30
22568;DHT22;11450;50.818;4.382;2022-07-09T14:54:10;22.80;94.20
22568;DHT22;11450;50.818;4.382;2022-07-09T14:56:36;22.30;95.00
22568;DHT22;11450;50.818;4.382;2022-07-09T14:59:02;21.90;95.20
22568;DHT22;11450;50.818;4.382;2022-07-09T15:01:30;22.30;93.40
22568;DHT22;11450;50.818;4.382;2022-07-09T15:03:57;22.40;94.10
22568;DHT22;11450;50.818;4.382;2022-07-09T15:06:23;22.60;94.00
22568;DHT22;11450;50.818;4.382;2022-07-09T15:08:48;22.80;93.20
22568;DHT22;11450;50.818;4.382;2022-07-09T15:11:14;22.70;93.80
22568;DHT22;11450;50.818;4.382;2022-07-09T15:13:43;22.20;94.50
22568;DHT22;11450;50.818;4.382;2022-07-09T15:16:09;22.10;94.20
22568;DHT22;11450;50.818;4.382;2022-07-09T15:18:35;22.40;93.70
22568;DHT22;11450;50.818;4.382;2022-07-09T15:21:04;22.40;93.60
22568;DHT22;11450;50.818;4.382;2022-07-09T15:23:30;22.40;94.20
22568;DHT22;11450;50.818;4.382;2022-07-09T15:25:55;22.30;94.80
22568;DHT22;11450;50.818;4.382;2022-07-09T15:28:21;22.20;94.80
22568;DHT22;11450;50.818;4.382;2022-07-09T15:30:47;22.00;94.40
22568;DHT22;11450;50.818;4.382;2022-07-09T15:33:12;22.00;94.30